Stiefeltown, South Carolina
Current Conditions -  °F | °C
As of 11:55 PM on Saturday 20 Dec 2014 (Local Time) from KAIK Reporting Station
Overcast Overcast  
Wind Chill: 45°   Ceiling: 2300
Heat Index: 45°   Visibility: 10mi
Dew Point: 45°   Wind: 0mph
Humidity: 100%   Direction: NA
Pressure: 30.25"   Gusts: NA
Location:  33.5144°N, 81.819°W
Report Text: KAIK 210455Z AUTO 00000KT 10SM SCT009 OVC023 07/07 A3025 RMK AO2 PNO
Loading
Personal Weather Stations






























Interactive Weather Map New forecast layout! Learn more

10-Day Weather Forecast

Advertisements
Track Severe Weather on mobile